createdAt,value
2019-01-18T00:04:07.214Z,3.27
2019-01-18T00:10:11.584Z,2.97
2019-01-18T00:16:15.864Z,3.30
2019-01-18T00:22:20.215Z,3.77
2019-01-18T00:28:24.628Z,3.60
2019-01-18T00:34:28.900Z,9.77
2019-01-18T00:40:33.181Z,4.40
2019-01-18T00:46:37.463Z,4.10
2019-01-18T00:52:41.973Z,3.03
2019-01-18T00:58:46.170Z,2.77
2019-01-18T01:04:50.443Z,2.73
2019-01-18T01:10:54.751Z,3.10
2019-01-18T01:16:59.026Z,3.43
2019-01-18T01:23:03.217Z,2.97
2019-01-18T01:29:07.511Z,2.63
2019-01-18T01:35:11.712Z,3.10
2019-01-18T01:41:15.940Z,3.30
2019-01-18T01:47:20.180Z,2.67
2019-01-18T01:53:24.493Z,3.13
2019-01-18T01:59:28.777Z,3.33
2019-01-18T02:05:33.130Z,3.20
2019-01-18T02:11:37.370Z,2.93
2019-01-18T02:17:41.630Z,3.50
2019-01-18T02:23:45.856Z,3.00
2019-01-18T02:29:56.416Z,3.00
2019-01-18T02:35:56.236Z,3.40
2019-01-18T02:42:00.735Z,3.53
2019-01-18T02:48:04.924Z,3.10
2019-01-18T02:54:09.272Z,3.13
2019-01-18T03:00:16.199Z,3.00
2019-01-18T03:06:20.418Z,3.40
2019-01-18T03:12:24.631Z,3.20
2019-01-18T03:18:28.846Z,3.27
2019-01-18T03:24:33.120Z,3.23
2019-01-18T03:30:37.387Z,3.33
2019-01-18T03:36:42.167Z,4.40
2019-01-18T03:42:46.761Z,3.80
2019-01-18T03:48:51.004Z,4.00
2019-01-18T03:54:55.202Z,4.33
2019-01-18T04:00:59.419Z,4.10
2019-01-18T04:07:03.721Z,4.27
2019-01-18T04:13:08.040Z,4.40
2019-01-18T04:19:12.318Z,4.40
2019-01-18T04:25:20.300Z,4.13
2019-01-18T04:31:24.698Z,6.37
2019-01-18T04:37:28.941Z,5.80
2019-01-18T04:43:33.313Z,5.97
2019-01-18T04:49:37.603Z,5.20
2019-01-18T04:55:41.883Z,4.60
2019-01-18T05:01:46.173Z,4.07
2019-01-18T05:07:50.468Z,4.03
2019-01-18T05:13:54.667Z,4.20
2019-01-18T05:19:58.870Z,4.70
2019-01-18T05:26:03.146Z,3.63
2019-01-18T05:32:07.580Z,3.93
2019-01-18T05:38:11.765Z,4.67
2019-01-18T05:44:16.050Z,7.20
2019-01-18T05:50:22.616Z,8.87
2019-01-18T05:56:26.839Z,8.70
2019-01-18T06:02:31.159Z,8.73
2019-01-18T06:08:35.414Z,8.33
2019-01-18T06:14:39.738Z,8.17
2019-01-18T06:20:44.040Z,7.57
2019-01-18T06:26:48.278Z,7.57
2019-01-18T06:32:52.551Z,7.00
2019-01-18T06:38:56.776Z,7.50
2019-01-18T06:45:01.030Z,6.97
2019-01-18T06:51:05.284Z,6.87
2019-01-18T06:57:09.465Z,6.30
2019-01-18T07:03:13.863Z,5.93
2019-01-18T07:09:18.060Z,5.90
2019-01-18T07:15:22.538Z,5.43
2019-01-18T07:21:26.839Z,6.23
2019-01-18T07:27:31.135Z,6.30
2019-01-18T07:33:35.324Z,8.00
2019-01-18T07:39:39.563Z,8.37
2019-01-18T07:45:43.807Z,8.57
2019-01-18T07:51:48.163Z,8.00
2019-01-18T07:57:52.493Z,7.33
2019-01-18T08:03:56.699Z,10.20
2019-01-18T08:10:00.887Z,8.80
2019-01-18T08:16:05.211Z,11.27
2019-01-18T08:22:09.539Z,9.70
2019-01-18T08:28:13.885Z,11.43
2019-01-18T08:34:18.192Z,10.37
2019-01-18T08:40:27.653Z,10.37
2019-01-18T08:46:31.952Z,11.57
2019-01-18T08:52:36.258Z,10.50
2019-01-18T08:58:40.503Z,9.60
2019-01-18T09:04:44.810Z,10.27
2019-01-18T09:10:49.020Z,10.47
2019-01-18T09:16:53.228Z,10.77
2019-01-18T09:22:57.572Z,11.87
2019-01-18T09:29:01.774Z,11.63
2019-01-18T09:35:07.730Z,11.63
2019-01-18T09:41:11.915Z,12.17
2019-01-18T09:47:16.140Z,13.20
2019-01-18T09:53:20.455Z,14.03
2019-01-18T09:59:24.687Z,21.80
2019-01-18T10:05:29.116Z,15.60
2019-01-18T10:11:33.340Z,15.90
2019-01-18T10:17:37.620Z,16.10
2019-01-18T10:23:41.797Z,15.07
2019-01-18T10:29:46.212Z,15.03
2019-01-18T10:35:50.437Z,14.60
2019-01-18T10:41:54.778Z,15.47
2019-01-18T10:48:00.003Z,14.63
2019-01-18T10:54:04.426Z,13.53
2019-01-18T11:00:12.841Z,13.67
2019-01-18T11:06:17.128Z,12.83
2019-01-18T11:12:21.513Z,13.33
2019-01-18T11:18:27.257Z,14.20
2019-01-18T11:24:31.462Z,12.90
2019-01-18T11:30:35.691Z,13.67
2019-01-18T11:36:39.966Z,13.00
2019-01-18T11:42:44.181Z,13.33
2019-01-18T11:48:50.380Z,12.60
2019-01-18T11:54:54.311Z,10.87
2019-01-18T12:00:58.579Z,13.17
2019-01-18T12:07:02.795Z,10.90
2019-01-18T12:13:07.087Z,12.50
2019-01-18T12:19:11.353Z,12.60
2019-01-18T12:25:15.671Z,9.27
2019-01-18T12:31:19.859Z,11.20
2019-01-18T12:37:24.159Z,11.97
2019-01-18T12:43:29.248Z,12.57
2019-01-18T12:49:33.443Z,11.77
2019-01-18T12:55:37.877Z,13.13
2019-01-18T13:01:42.372Z,11.67
2019-01-18T13:07:47.632Z,14.25
2019-01-18T13:13:51.822Z,15.37
2019-01-18T13:19:56.023Z,16.47
2019-01-18T13:26:00.426Z,17.87
2019-01-18T13:32:04.786Z,21.60
2019-01-18T13:38:09.001Z,18.48
2019-01-18T13:44:13.393Z,20.70
2019-01-18T13:50:18.028Z,12.63
2019-01-18T13:56:22.285Z,10.50
2019-01-18T14:02:26.570Z,9.35
2019-01-18T14:08:30.914Z,10.20
2019-01-18T14:14:35.189Z,10.50
2019-01-18T14:20:39.455Z,10.23
2019-01-18T14:26:43.670Z,10.93
2019-01-18T14:32:47.941Z,9.13
2019-01-18T14:38:52.233Z,10.55
2019-01-18T14:44:57.507Z,9.80
2019-01-18T14:51:01.844Z,10.47
2019-01-18T14:57:06.149Z,9.97
2019-01-18T15:03:10.555Z,11.00
2019-01-18T15:09:14.799Z,11.10
2019-01-18T15:15:19.448Z,10.80
2019-01-18T15:21:23.653Z,11.60
2019-01-18T15:27:27.965Z,12.57
2019-01-18T15:33:32.187Z,13.20
2019-01-18T15:39:36.467Z,13.10
2019-01-18T15:45:40.680Z,13.60
2019-01-18T15:51:44.950Z,15.80
2019-01-18T15:57:49.159Z,13.47
2019-01-18T16:03:53.761Z,18.37
2019-01-18T16:09:57.977Z,14.27
2019-01-18T16:16:22.037Z,15.73
2019-01-18T16:22:26.648Z,14.43
2019-01-18T16:28:30.867Z,15.63
2019-01-18T16:34:35.073Z,18.57
2019-01-18T16:40:39.300Z,20.93
2019-01-18T16:46:43.549Z,22.77
2019-01-18T16:52:47.943Z,24.77
2019-01-18T16:58:52.239Z,21.83
2019-01-18T17:04:56.509Z,21.60
2019-01-18T17:11:00.720Z,20.90
2019-01-18T17:17:05.361Z,20.73
2019-01-18T17:23:09.763Z,22.13
2019-01-18T17:29:14.049Z,24.47
2019-01-18T17:35:24.454Z,22.97
2019-01-18T17:42:17.404Z,29.83
2019-01-18T17:48:43.947Z,27.67
2019-01-18T17:54:56.332Z,20.70
2019-01-18T18:01:33.298Z,42.20
2019-01-18T18:08:32.887Z,20.00
2019-01-18T18:14:57.418Z,17.23
2019-01-18T18:21:39.318Z,17.83
2019-01-18T18:28:38.208Z,16.47
2019-01-18T18:35:28.686Z,16.77
2019-01-18T18:42:13.306Z,16.40
2019-01-18T18:48:46.089Z,17.40
2019-01-18T18:55:33.740Z,37.33
2019-01-18T19:02:03.068Z,35.27
2019-01-18T19:08:59.175Z,24.47
2019-01-18T19:15:43.197Z,54.23
2019-01-18T19:22:34.445Z,18.87
2019-01-18T19:29:34.585Z,18.67
2019-01-18T19:35:49.821Z,21.43
2019-01-18T19:42:50.083Z,21.37
2019-01-18T19:49:36.789Z,20.33
2019-01-18T19:56:29.751Z,20.27
2019-01-18T20:02:41.401Z,33.90
2019-01-18T20:08:58.835Z,39.10
2019-01-18T20:15:31.455Z,57.50
2019-01-18T20:22:11.177Z,75.60
2019-01-18T20:28:28.177Z,68.07
2019-01-18T20:34:58.724Z,85.00
2019-01-18T20:41:46.766Z,23.43
2019-01-18T20:48:37.933Z,25.53
2019-01-18T20:55:33.596Z,27.23
2019-01-18T21:01:59.676Z,31.27
2019-01-18T21:08:52.541Z,29.73
2019-01-18T21:15:27.350Z,37.93
2019-01-18T21:22:14.070Z,52.57
2019-01-18T21:29:11.108Z,51.97
2019-01-18T21:35:58.156Z,35.87
2019-01-18T21:42:15.162Z,17.83
2019-01-18T21:48:44.347Z,21.37
2019-01-18T21:55:12.337Z,17.43
2019-01-18T22:01:30.449Z,21.57
2019-01-18T22:07:56.857Z,17.57
2019-01-18T22:14:21.975Z,17.30
2019-01-18T22:21:20.285Z,16.03
2019-01-18T22:27:38.753Z,18.50
2019-01-18T22:33:57.509Z,17.97
2019-01-18T22:40:41.813Z,18.40
2019-01-18T22:47:11.371Z,17.97
2019-01-18T22:53:31.760Z,17.40
2019-01-18T23:00:30.230Z,19.47
2019-01-18T23:07:20.989Z,17.97
2019-01-18T23:13:55.894Z,16.83
2019-01-18T23:20:41.159Z,18.23
2019-01-18T23:27:17.658Z,17.97
2019-01-18T23:33:43.314Z,16.70
2019-01-18T23:40:21.134Z,17.13
2019-01-18T23:47:13.793Z,16.13
2019-01-18T23:53:36.521Z,17.10
